Airfield :
LOGIN :

Register | Disclaimer

   EN    FR    IT 

 










Legend :    VFR   Marginal VFR   IFR   Intensive IFR   Very Intensive IFR
Visi :
Ceiling :
>= 8 km
>= 3000ft
5 to 8 km
1000 to 3000 ft
1500m to 5 km
500 to 1000 ft
800 to 1500m
200 to 500 ft
< 800m
< 200 ft
Symbols :   Thunderstorms  Fog  Heavy snow  Heavy precipitations  Wind > 20 kt
SIGMETs :     Misc.  Thunderstorms  Icing  Turbulence  Mountain Waves  Volcanic Ashes







- Airport Elevation : 1766 ft


ETHL - Laupheim AB

CURRENT METAR :
  • 241520Z 07010KT 8000 OVC012 08/05 Q1025 GRN

EXPIRED METARs :
  • 241441Z 07010KT 8000 OVC011 08/05 Q1025 GRN
  • 241420Z 07013KT 7000 OVC010 08/05 Q1024 GRN
  • 241320Z 06012KT 5000 BR OVC008 07/05 Q1024 GRN
  • 241300Z 07013KT 5000 BR OVC007 07/05 Q1024 GRN

TAF AMD TAF ETHL
Valid from the 24 at 09:00 until the 24 at 18:00 UTC


241019Z 2409/2418 07013KT 4000 BR OVC005 OVC240
BECMG 2409/2411 07015KT 6000 NSW OVC008 BKN260
BECMG 2411/2413 06015G25KT 9999 NSW BKN010 BKN300 CANCEL 1100
No reported NOTAMs for that airfield.



MET'MAP, your aeronautical weather chart ! - Copyright ORBIFLY December 2007 - Disclaimer

ORBIFLY MET'MAP TEAM :

Programming & Development : Alexandra Zaïnal
Concept & Development : Baudouin d'Aumeries
Co-Development & Prog : Marc-Olivier Méhu
Technical & hardware support : Manuel Goepfert

Contact : metmap@orbifly.com




SOURCES & CREDITS :

   NOAA